createdAt,value
2018-12-23T00:00:47.693Z,1010.66
2018-12-23T00:01:47.709Z,1010.65
2018-12-23T00:02:47.724Z,1010.7
2018-12-23T00:03:47.738Z,1010.71
2018-12-23T00:04:47.755Z,1010.73
2018-12-23T00:05:47.784Z,1010.78
2018-12-23T00:06:47.785Z,1010.79
2018-12-23T00:07:47.865Z,1010.82
2018-12-23T00:08:47.815Z,1010.83
2018-12-23T00:09:47.830Z,1010.81
2018-12-23T00:10:47.846Z,1010.85
2018-12-23T00:11:47.861Z,1010.91
2018-12-23T00:13:47.895Z,1010.94
2018-12-23T00:14:47.907Z,1010.96
2018-12-23T00:15:47.923Z,1011
2018-12-23T00:16:47.942Z,1011.02
2018-12-23T00:17:47.955Z,1011.05
2018-12-23T00:18:47.969Z,1011.04
2018-12-23T00:19:47.985Z,1011.07
2018-12-23T00:20:48.000Z,1011.06
2018-12-23T00:21:48.015Z,1011.11
2018-12-23T00:22:48.030Z,1011.16
2018-12-23T00:23:48.046Z,1011.14
2018-12-23T00:24:48.062Z,1011.16
2018-12-23T00:25:48.076Z,1011.18
2018-12-23T00:26:48.092Z,1011.14
2018-12-23T00:27:48.108Z,1011.12
2018-12-23T00:28:48.123Z,1011.15
2018-12-23T00:29:48.138Z,1011.15
2018-12-23T00:30:48.156Z,1011.13
2018-12-23T00:31:48.169Z,1011.14
2018-12-23T00:32:48.184Z,1011.15
2018-12-23T00:33:48.199Z,1011.18
2018-12-23T00:34:48.215Z,1011.19
2018-12-23T00:35:48.231Z,1011.28
2018-12-23T00:36:48.245Z,1011.28
2018-12-23T00:37:48.261Z,1011.26
2018-12-23T00:38:48.377Z,1011.26
2018-12-23T00:39:48.292Z,1011.31
2018-12-23T00:40:48.309Z,1011.32
2018-12-23T00:41:48.323Z,1011.34
2018-12-23T00:42:48.340Z,1011.35
2018-12-23T00:43:48.354Z,1011.31
2018-12-23T00:45:48.384Z,1011.35
2018-12-23T00:46:48.400Z,1011.35
2018-12-23T00:47:48.415Z,1011.37
2018-12-23T00:48:48.430Z,1011.38
2018-12-23T00:49:48.446Z,1011.4
2018-12-23T00:50:48.462Z,1011.42
2018-12-23T00:51:48.481Z,1011.45
2018-12-23T00:52:48.492Z,1011.45
2018-12-23T00:53:48.508Z,1011.43
2018-12-23T00:54:48.523Z,1011.46
2018-12-23T00:55:48.538Z,1011.49
2018-12-23T00:56:48.554Z,1011.48
2018-12-23T00:57:48.569Z,1011.49
2018-12-23T00:58:48.584Z,1011.49
2018-12-23T00:59:48.600Z,1011.56
2018-12-23T01:01:48.631Z,1011.56
2018-12-23T01:02:48.746Z,1011.58
2018-12-23T01:03:48.661Z,1011.58
2018-12-23T01:04:48.678Z,1011.58
2018-12-23T01:05:48.692Z,1011.59
2018-12-23T01:06:48.707Z,1011.64
2018-12-23T01:07:48.722Z,1011.59
2018-12-23T01:08:48.738Z,1011.62
2018-12-23T01:09:48.753Z,1011.67
2018-12-23T01:10:48.771Z,1011.71
2018-12-23T01:11:48.785Z,1011.69
2018-12-23T01:12:48.799Z,1011.7
2018-12-23T01:13:48.814Z,1011.73
2018-12-23T01:14:48.830Z,1011.74
2018-12-23T01:15:48.847Z,1011.75
2018-12-23T01:17:48.876Z,1011.82
2018-12-23T01:18:48.892Z,1011.81
2018-12-23T01:19:48.908Z,1011.85
2018-12-23T01:20:48.922Z,1011.85
2018-12-23T01:21:48.938Z,1011.86
2018-12-23T01:22:48.953Z,1011.92
2018-12-23T01:23:48.969Z,1011.93
2018-12-23T01:24:48.984Z,1011.97
2018-12-23T01:25:48.999Z,1011.92
2018-12-23T01:26:49.019Z,1011.97
2018-12-23T01:27:49.031Z,1011.99
2018-12-23T01:28:49.045Z,1012.01
2018-12-23T01:29:49.061Z,1011.98
2018-12-23T01:30:49.077Z,1011.97
2018-12-23T01:31:49.191Z,1012.03
2018-12-23T01:33:49.129Z,1012.02
2018-12-23T01:34:49.139Z,1012.05
2018-12-23T01:35:49.153Z,1012.04
2018-12-23T01:36:49.169Z,1012.03
2018-12-23T01:37:49.184Z,1012.04
2018-12-23T01:38:49.199Z,1012.03
2018-12-23T01:39:49.214Z,1011.97
2018-12-23T01:40:49.230Z,1011.98
2018-12-23T01:41:49.246Z,1011.95
2018-12-23T01:42:49.261Z,1011.95
2018-12-23T01:43:49.276Z,1011.95
2018-12-23T01:44:49.291Z,1011.92
2018-12-23T01:45:49.307Z,1011.97
2018-12-23T01:46:49.323Z,1012.02
2018-12-23T01:48:49.355Z,1012.09
2018-12-23T01:49:49.369Z,1012.12
2018-12-23T01:50:49.387Z,1012.06
2018-12-23T01:51:49.401Z,1012.05
2018-12-23T01:52:49.416Z,1012.06
2018-12-23T01:53:49.430Z,1012.07
2018-12-23T01:54:49.446Z,1012.03
2018-12-23T01:55:49.461Z,1012.03
2018-12-23T01:56:49.476Z,1012.04
2018-12-23T01:57:49.491Z,1012.05
2018-12-23T01:58:49.507Z,1012.04
2018-12-23T01:59:49.523Z,1012.04
2018-12-23T02:00:49.537Z,1012
2018-12-23T02:01:49.553Z,1012.03
2018-12-23T02:02:49.568Z,1012.07
2018-12-23T02:03:49.584Z,1012.06
2018-12-23T02:04:49.601Z,1012.12
2018-12-23T02:05:49.614Z,1012.21
2018-12-23T02:06:49.630Z,1012.19
2018-12-23T02:07:49.644Z,1012.21
2018-12-23T02:08:49.659Z,1012.22
2018-12-23T02:09:49.675Z,1012.23
2018-12-23T02:10:49.690Z,1012.22
2018-12-23T02:11:49.705Z,1012.22
2018-12-23T02:12:49.720Z,1012.19
2018-12-23T02:13:49.736Z,1012.17
2018-12-23T02:14:49.751Z,1012.15
2018-12-23T02:15:49.766Z,1012.17
2018-12-23T02:16:49.782Z,1012.15
2018-12-23T02:17:49.797Z,1012.18
2018-12-23T02:18:49.812Z,1012.14
2018-12-23T02:20:49.842Z,1012.15
2018-12-23T02:21:49.858Z,1012.2
2018-12-23T02:22:49.872Z,1012.17
2018-12-23T02:23:49.890Z,1012.22
2018-12-23T02:24:49.904Z,1012.24
2018-12-23T02:25:49.919Z,1012.22
2018-12-23T02:26:49.934Z,1012.26
2018-12-23T02:27:49.949Z,1012.29
2018-12-23T02:28:49.965Z,1012.32
2018-12-23T02:29:49.980Z,1012.3
2018-12-23T02:30:49.995Z,1012.27
2018-12-23T02:31:50.012Z,1012.29
2018-12-23T02:32:50.027Z,1012.28
2018-12-23T02:33:50.040Z,1012.24
2018-12-23T02:34:50.062Z,1012.25
2018-12-23T02:36:50.094Z,1012.27
2018-12-23T02:37:50.111Z,1012.28
2018-12-23T02:38:50.118Z,1012.23
2018-12-23T02:39:50.133Z,1012.27
2018-12-23T02:40:50.148Z,1012.27
2018-12-23T02:41:50.164Z,1012.24
2018-12-23T02:42:50.183Z,1012.28
2018-12-23T02:43:50.195Z,1012.26
2018-12-23T02:44:50.209Z,1012.24
2018-12-23T02:45:50.224Z,1012.25
2018-12-23T02:46:50.247Z,1012.28
2018-12-23T02:47:50.256Z,1012.31
2018-12-23T02:48:50.272Z,1012.31
2018-12-23T02:49:50.286Z,1012.31
2018-12-23T02:50:50.301Z,1012.31
2018-12-23T02:52:50.333Z,1012.34
2018-12-23T02:53:50.348Z,1012.36
2018-12-23T02:54:50.364Z,1012.36
2018-12-23T02:55:50.378Z,1012.37
2018-12-23T02:56:50.393Z,1012.38
2018-12-23T02:57:50.409Z,1012.33
2018-12-23T02:58:50.424Z,1012.32
2018-12-23T02:59:50.439Z,1012.31
2018-12-23T03:00:50.455Z,1012.27
2018-12-23T03:01:50.472Z,1012.27
2018-12-23T03:02:50.485Z,1012.23
2018-12-23T03:03:50.500Z,1012.26
2018-12-23T03:04:50.516Z,1012.25
2018-12-23T03:05:50.531Z,1012.22
2018-12-23T03:06:50.546Z,1012.18
2018-12-23T03:08:50.578Z,1012.16
2018-12-23T03:09:50.592Z,1012.2
2018-12-23T03:10:50.608Z,1012.18
2018-12-23T03:11:50.624Z,1012.2
2018-12-23T03:12:50.639Z,1012.15
2018-12-23T03:13:50.655Z,1012.17
2018-12-23T03:14:50.669Z,1012.15
2018-12-23T03:15:50.685Z,1012.17
2018-12-23T03:16:50.700Z,1012.15
2018-12-23T03:17:50.715Z,1012.2
2018-12-23T03:18:50.731Z,1012.14
2018-12-23T03:19:50.746Z,1012.09
2018-12-23T03:20:50.766Z,1012.06
2018-12-23T03:21:50.779Z,1012.03
2018-12-23T03:23:50.809Z,1011.99
2018-12-23T03:24:50.823Z,1012.04
2018-12-23T03:25:50.839Z,1012.01
2018-12-23T03:26:50.854Z,1011.97
2018-12-23T03:27:50.871Z,1011.97
2018-12-23T03:28:50.885Z,1012.02
2018-12-23T03:29:50.902Z,1012.01
2018-12-23T03:30:50.921Z,1012.03
2018-12-23T03:31:50.938Z,1012.02
2018-12-23T03:32:50.951Z,1012.01
2018-12-23T03:33:50.965Z,1012
2018-12-23T03:34:50.978Z,1012.04
2018-12-23T03:35:50.993Z,1012.04
2018-12-23T03:36:51.009Z,1012.1
2018-12-23T03:37:51.026Z,1012.13
2018-12-23T03:38:51.040Z,1012.2
2018-12-23T03:39:51.054Z,1012.19
2018-12-23T03:40:51.193Z,1012.15
2018-12-23T03:41:51.087Z,1012.14
2018-12-23T03:42:51.102Z,1012.13
2018-12-23T03:43:51.117Z,1012.1
2018-12-23T03:44:51.132Z,1012.05
2018-12-23T03:45:51.148Z,1012
2018-12-23T03:46:51.163Z,1012
2018-12-23T03:47:51.178Z,1011.96
2018-12-23T03:48:51.194Z,1011.99
2018-12-23T03:49:51.211Z,1012
2018-12-23T03:50:51.225Z,1011.98
2018-12-23T03:51:51.241Z,1012
2018-12-23T03:52:51.356Z,1011.95
2018-12-23T03:53:51.276Z,1011.98
2018-12-23T03:55:51.306Z,1011.98
2018-12-23T03:56:51.320Z,1011.95
2018-12-23T03:57:51.333Z,1011.94
2018-12-23T03:58:51.349Z,1011.92
2018-12-23T03:59:51.366Z,1011.89
2018-12-23T04:00:51.383Z,1011.91
2018-12-23T04:01:51.395Z,1011.89
2018-12-23T04:02:51.411Z,1011.82
2018-12-23T04:03:51.427Z,1011.8
2018-12-23T04:04:51.441Z,1011.8
2018-12-23T04:05:51.458Z,1011.78
2018-12-23T04:06:51.473Z,1011.81
2018-12-23T04:07:51.489Z,1011.82
2018-12-23T04:08:51.505Z,1011.81
2018-12-23T04:09:51.525Z,1011.81
2018-12-23T04:11:51.550Z,1011.8
2018-12-23T04:12:51.566Z,1011.84
2018-12-23T04:13:51.582Z,1011.86
2018-12-23T04:14:51.598Z,1011.87
2018-12-23T04:15:51.612Z,1011.88
2018-12-23T04:16:51.630Z,1011.83
2018-12-23T04:17:51.643Z,1011.83
2018-12-23T04:18:51.662Z,1011.78
2018-12-23T04:19:51.674Z,1011.79
2018-12-23T04:20:51.689Z,1011.82
2018-12-23T04:21:51.712Z,1011.79
2018-12-23T04:22:51.723Z,1011.72
2018-12-23T04:23:51.741Z,1011.79
2018-12-23T04:24:51.754Z,1011.77
2018-12-23T04:25:51.768Z,1011.74
2018-12-23T04:27:51.799Z,1011.72
2018-12-23T04:28:51.814Z,1011.71
2018-12-23T04:29:51.831Z,1011.71
2018-12-23T04:30:51.845Z,1011.74
2018-12-23T04:31:51.861Z,1011.75
2018-12-23T04:32:51.876Z,1011.8
2018-12-23T04:33:51.903Z,1011.78
2018-12-23T04:34:51.913Z,1011.79
2018-12-23T04:35:51.923Z,1011.84
2018-12-23T04:36:51.940Z,1011.82
2018-12-23T04:37:51.955Z,1011.86
2018-12-23T04:38:51.972Z,1011.88
2018-12-23T04:39:51.986Z,1011.81
2018-12-23T04:40:52.002Z,1011.83
2018-12-23T04:41:52.016Z,1011.81
2018-12-23T04:43:52.047Z,1011.75
2018-12-23T04:44:52.063Z,1011.74
2018-12-23T04:45:52.079Z,1011.77
2018-12-23T04:46:52.094Z,1011.74
2018-12-23T04:47:52.112Z,1011.78
2018-12-23T04:48:52.125Z,1011.75
2018-12-23T04:49:52.142Z,1011.78
2018-12-23T04:50:52.160Z,1011.77
2018-12-23T04:51:52.175Z,1011.75
2018-12-23T04:52:52.188Z,1011.75
2018-12-23T04:53:52.204Z,1011.75
2018-12-23T04:54:52.220Z,1011.71
2018-12-23T04:55:52.235Z,1011.76
2018-12-23T04:56:52.251Z,1011.77
2018-12-23T04:58:52.283Z,1011.81
2018-12-23T04:59:52.299Z,1011.82
2018-12-23T05:00:52.314Z,1011.84
2018-12-23T05:01:52.335Z,1011.81
2018-12-23T05:02:52.347Z,1011.8
2018-12-23T05:03:52.361Z,1011.8
2018-12-23T05:04:52.378Z,1011.77
2018-12-23T05:05:52.392Z,1011.76
2018-12-23T05:06:52.407Z,1011.77
2018-12-23T05:07:52.423Z,1011.78
2018-12-23T05:08:52.440Z,1011.83
2018-12-23T05:09:52.455Z,1011.76
2018-12-23T05:10:52.470Z,1011.76
2018-12-23T05:11:52.486Z,1011.77
2018-12-23T05:12:52.509Z,1011.74
2018-12-23T05:13:52.518Z,1011.78
2018-12-23T05:14:52.532Z,1011.79
2018-12-23T05:15:52.547Z,1011.74
2018-12-23T05:16:52.567Z,1011.72
2018-12-23T05:17:52.579Z,1011.7
2018-12-23T05:18:52.595Z,1011.69
2018-12-23T05:19:52.612Z,1011.72
2018-12-23T05:20:52.627Z,1011.68
2018-12-23T05:21:52.641Z,1011.73
2018-12-23T05:22:52.658Z,1011.77
2018-12-23T05:23:52.675Z,1011.73
2018-12-23T05:24:52.689Z,1011.77
2018-12-23T05:25:52.703Z,1011.7
2018-12-23T05:26:52.720Z,1011.7
2018-12-23T05:27:52.736Z,1011.69
2018-12-23T05:28:52.750Z,1011.67
2018-12-23T05:30:52.782Z,1011.62
2018-12-23T05:31:52.799Z,1011.63
2018-12-23T05:32:52.812Z,1011.66
2018-12-23T05:33:52.829Z,1011.67
2018-12-23T05:34:52.845Z,1011.68
2018-12-23T05:35:52.861Z,1011.69
2018-12-23T05:36:52.878Z,1011.64
2018-12-23T05:37:52.892Z,1011.68
2018-12-23T05:38:52.907Z,1011.67
2018-12-23T05:39:52.922Z,1011.64
2018-12-23T05:40:52.942Z,1011.66
2018-12-23T05:41:52.954Z,1011.66
2018-12-23T05:42:52.970Z,1011.71
2018-12-23T05:43:52.984Z,1011.73
2018-12-23T05:44:53.001Z,1011.71
2018-12-23T05:46:53.034Z,1011.73
2018-12-23T05:47:53.047Z,1011.69
2018-12-23T05:48:53.063Z,1011.71
2018-12-23T05:49:53.079Z,1011.7
2018-12-23T05:50:53.094Z,1011.71
2018-12-23T05:51:53.110Z,1011.75
2018-12-23T05:52:53.126Z,1011.7
2018-12-23T05:53:53.142Z,1011.72
2018-12-23T05:54:53.157Z,1011.73
2018-12-23T05:55:53.173Z,1011.71
2018-12-23T05:56:53.238Z,1011.75
2018-12-23T05:57:53.205Z,1011.77
2018-12-23T05:58:53.220Z,1011.74
2018-12-23T05:59:53.283Z,1011.74
2018-12-23T06:00:53.251Z,1011.73
2018-12-23T06:02:53.285Z,1011.74
2018-12-23T06:03:53.299Z,1011.74
2018-12-23T06:04:53.314Z,1011.73
2018-12-23T06:05:53.329Z,1011.75
2018-12-23T06:07:00.707Z,1011.76
2018-12-23T06:07:53.361Z,1011.8
2018-12-23T06:08:53.378Z,1011.83
2018-12-23T06:09:53.393Z,1011.8
2018-12-23T06:10:53.408Z,1011.81
2018-12-23T06:11:53.424Z,1011.82
2018-12-23T06:12:53.440Z,1011.83
2018-12-23T06:13:53.456Z,1011.78
2018-12-23T06:14:53.473Z,1011.84
2018-12-23T06:15:53.492Z,1011.79
2018-12-23T06:16:53.502Z,1011.86
2018-12-23T06:18:53.534Z,1011.83
2018-12-23T06:19:53.550Z,1011.81
2018-12-23T06:20:53.567Z,1011.79
2018-12-23T06:21:53.582Z,1011.77
2018-12-23T06:22:53.597Z,1011.78
2018-12-23T06:23:53.612Z,1011.78
2018-12-23T06:24:53.665Z,1011.77
2018-12-23T06:25:53.644Z,1011.79
2018-12-23T06:26:53.660Z,1011.8
2018-12-23T06:27:53.675Z,1011.81
2018-12-23T06:28:53.694Z,1011.82
2018-12-23T06:29:53.707Z,1011.76
2018-12-23T06:30:53.723Z,1011.79
2018-12-23T06:31:53.840Z,1011.81
2018-12-23T06:33:53.773Z,1011.77
2018-12-23T06:34:53.786Z,1011.76
2018-12-23T06:35:53.802Z,1011.76
2018-12-23T06:36:53.820Z,1011.78
2018-12-23T06:37:53.834Z,1011.77
2018-12-23T06:38:53.849Z,1011.73
2018-12-23T06:39:53.865Z,1011.74
2018-12-23T06:40:53.881Z,1011.81
2018-12-23T06:41:53.897Z,1011.72
2018-12-23T06:42:53.913Z,1011.73
2018-12-23T06:43:53.930Z,1011.71
2018-12-23T06:44:53.945Z,1011.78
2018-12-23T06:45:54.060Z,1011.75
2018-12-23T06:46:53.976Z,1011.79
2018-12-23T06:47:53.992Z,1011.79
2018-12-23T06:48:54.011Z,1011.75
2018-12-23T06:49:54.024Z,1011.77
2018-12-23T06:50:54.040Z,1011.73
2018-12-23T06:51:54.055Z,1011.77
2018-12-23T06:52:54.071Z,1011.81
2018-12-23T06:53:54.086Z,1011.78
2018-12-23T06:54:54.103Z,1011.75
2018-12-23T06:55:54.119Z,1011.74
2018-12-23T06:56:54.134Z,1011.76
2018-12-23T06:57:54.150Z,1011.72
2018-12-23T06:58:54.166Z,1011.73
2018-12-23T06:59:54.182Z,1011.73
2018-12-23T07:00:54.197Z,1011.76
2018-12-23T07:01:54.213Z,1011.76
2018-12-23T07:02:54.230Z,1011.77
2018-12-23T07:03:54.245Z,1011.74
2018-12-23T07:05:54.277Z,1011.71
2018-12-23T07:06:54.298Z,1011.72
2018-12-23T07:07:54.314Z,1011.71
2018-12-23T07:08:54.325Z,1011.67
2018-12-23T07:09:54.341Z,1011.68
2018-12-23T07:10:54.359Z,1011.63
2018-12-23T07:11:54.373Z,1011.72
2018-12-23T07:12:54.390Z,1011.65
2018-12-23T07:13:54.405Z,1011.69
2018-12-23T07:14:54.420Z,1011.65
2018-12-23T07:15:54.436Z,1011.67
2018-12-23T07:16:54.453Z,1011.64
2018-12-23T07:17:54.469Z,1011.61
2018-12-23T07:18:54.484Z,1011.65
2018-12-23T07:19:54.500Z,1011.58
2018-12-23T07:21:54.533Z,1011.57
2018-12-23T07:22:54.548Z,1011.56
2018-12-23T07:23:54.564Z,1011.62
2018-12-23T07:24:54.580Z,1011.59
2018-12-23T07:25:54.596Z,1011.55
2018-12-23T07:26:54.613Z,1011.56
2018-12-23T07:27:54.629Z,1011.53
2018-12-23T07:28:54.645Z,1011.59
2018-12-23T07:29:54.660Z,1011.51
2018-12-23T07:30:54.676Z,1011.52
2018-12-23T07:31:54.693Z,1011.54
2018-12-23T07:32:54.709Z,1011.51
2018-12-23T07:33:54.726Z,1011.53
2018-12-23T07:34:54.741Z,1011.46
2018-12-23T07:35:54.757Z,1011.56
2018-12-23T07:37:54.789Z,1011.61
2018-12-23T07:38:54.808Z,1011.58
2018-12-23T07:39:54.821Z,1011.58
2018-12-23T07:40:54.836Z,1011.57
2018-12-23T07:41:54.853Z,1011.55
2018-12-23T07:42:54.869Z,1011.59
2018-12-23T07:43:54.885Z,1011.59
2018-12-23T07:44:54.901Z,1011.59
2018-12-23T07:45:54.916Z,1011.57
2018-12-23T07:46:54.933Z,1011.57
2018-12-23T07:47:54.949Z,1011.64
2018-12-23T07:48:54.965Z,1011.66
2018-12-23T07:49:54.981Z,1011.66
2018-12-23T07:50:54.997Z,1011.63
2018-12-23T07:51:55.013Z,1011.71
2018-12-23T07:53:55.045Z,1011.71
2018-12-23T07:54:55.062Z,1011.75
2018-12-23T07:55:55.078Z,1011.77
2018-12-23T07:56:55.094Z,1011.77
2018-12-23T07:57:55.115Z,1011.74
2018-12-23T07:58:55.127Z,1011.78
2018-12-23T07:59:55.142Z,1011.74
2018-12-23T08:00:55.158Z,1011.78
2018-12-23T08:01:56.976Z,1011.81
2018-12-23T08:02:55.190Z,1011.81
2018-12-23T08:03:55.206Z,1011.83
2018-12-23T08:04:55.223Z,1011.82
2018-12-23T08:05:55.238Z,1011.73
2018-12-23T08:06:55.255Z,1011.71
2018-12-23T08:08:55.288Z,1011.71
2018-12-23T08:09:55.303Z,1011.75
2018-12-23T08:10:55.320Z,1011.73
2018-12-23T08:11:55.335Z,1011.76
2018-12-23T08:12:55.353Z,1011.69
2018-12-23T08:13:55.368Z,1011.73
2018-12-23T08:14:55.384Z,1011.74
2018-12-23T08:15:55.401Z,1011.74
2018-12-23T08:16:55.416Z,1011.75
2018-12-23T08:17:55.433Z,1011.76
2018-12-23T08:18:55.449Z,1011.76
2018-12-23T08:19:55.466Z,1011.77
2018-12-23T08:20:55.485Z,1011.8
2018-12-23T08:21:55.497Z,1011.76
2018-12-23T08:22:55.514Z,1011.75
2018-12-23T08:23:55.531Z,1011.77
2018-12-23T08:24:57.100Z,1011.72
2018-12-23T08:25:55.563Z,1011.8
2018-12-23T08:26:55.579Z,1011.72
2018-12-23T08:27:55.595Z,1011.68
2018-12-23T08:28:55.617Z,1011.68
2018-12-23T08:29:55.628Z,1011.69
2018-12-23T08:30:55.645Z,1011.72
2018-12-23T08:31:55.659Z,1011.73
2018-12-23T08:32:55.678Z,1011.72
2018-12-23T08:33:55.693Z,1011.73
2018-12-23T08:34:55.709Z,1011.78
2018-12-23T08:35:55.725Z,1011.71
2018-12-23T08:36:55.742Z,1011.71
2018-12-23T08:37:55.758Z,1011.7
2018-12-23T08:38:55.775Z,1011.68
2018-12-23T08:40:55.807Z,1011.79
2018-12-23T08:41:55.823Z,1011.77
2018-12-23T08:42:55.838Z,1011.79
2018-12-23T08:43:55.855Z,1011.74
2018-12-23T08:44:55.873Z,1011.84
2018-12-23T08:45:55.888Z,1011.75
2018-12-23T08:46:55.904Z,1011.77
2018-12-23T08:47:55.920Z,1011.72
2018-12-23T08:48:55.936Z,1011.79
2018-12-23T08:49:55.953Z,1011.76
2018-12-23T08:50:55.970Z,1011.74
2018-12-23T08:51:55.990Z,1011.83
2018-12-23T08:52:56.002Z,1011.9
2018-12-23T08:53:56.018Z,1011.87
2018-12-23T08:54:56.035Z,1011.87
2018-12-23T08:56:56.068Z,1011.8
2018-12-23T08:57:56.083Z,1011.83
2018-12-23T08:58:56.101Z,1011.86
2018-12-23T08:59:56.116Z,1011.8
2018-12-23T09:00:56.132Z,1011.83
2018-12-23T09:01:56.149Z,1011.89
2018-12-23T09:02:56.165Z,1011.85
2018-12-23T09:03:56.181Z,1011.82
2018-12-23T09:04:56.198Z,1011.81
2018-12-23T09:05:56.214Z,1011.92
2018-12-23T09:06:56.230Z,1011.86
2018-12-23T09:07:56.247Z,1011.83
2018-12-23T09:08:56.263Z,1011.88
2018-12-23T09:09:57.209Z,1011.81
2018-12-23T09:10:56.296Z,1011.79
2018-12-23T09:12:56.328Z,1011.83
2018-12-23T09:13:56.345Z,1011.79
2018-12-23T09:14:56.362Z,1011.77
2018-12-23T09:15:56.377Z,1011.86
2018-12-23T09:16:56.394Z,1011.82
2018-12-23T09:17:56.411Z,1011.79
2018-12-23T09:18:56.427Z,1011.75
2018-12-23T09:19:56.443Z,1011.74
2018-12-23T09:20:56.460Z,1011.7
2018-12-23T09:21:56.477Z,1011.72
2018-12-23T09:22:56.493Z,1011.7
2018-12-23T09:23:56.514Z,1011.69
2018-12-23T09:24:56.526Z,1011.74
2018-12-23T09:25:56.545Z,1011.7
2018-12-23T09:26:56.558Z,1011.68
2018-12-23T09:28:56.592Z,1011.7
2018-12-23T09:29:56.609Z,1011.79
2018-12-23T09:30:56.624Z,1011.69
2018-12-23T09:31:56.641Z,1011.66
2018-12-23T09:32:56.658Z,1011.76
2018-12-23T09:33:56.674Z,1011.74
2018-12-23T09:34:56.691Z,1011.73
2018-12-23T09:35:56.708Z,1011.75
2018-12-23T09:36:56.727Z,1011.78
2018-12-23T09:38:01.351Z,1011.8
2018-12-23T09:38:56.760Z,1011.79
2018-12-23T09:39:56.774Z,1011.72
2018-12-23T09:40:56.791Z,1011.72
2018-12-23T09:41:56.808Z,1011.74
2018-12-23T09:43:56.842Z,1011.74
2018-12-23T09:44:56.857Z,1011.74
2018-12-23T09:45:56.876Z,1011.71
2018-12-23T09:46:56.891Z,1011.68
2018-12-23T09:47:56.908Z,1011.67
2018-12-23T09:48:56.930Z,1011.67
2018-12-23T09:49:56.941Z,1011.65
2018-12-23T09:50:56.958Z,1011.69
2018-12-23T09:51:56.974Z,1011.68
2018-12-23T09:52:56.991Z,1011.68
2018-12-23T09:53:57.008Z,1011.75
2018-12-23T09:54:57.025Z,1011.74
2018-12-23T09:55:57.042Z,1011.68
2018-12-23T09:56:57.058Z,1011.67
2018-12-23T09:57:57.076Z,1011.66
2018-12-23T09:58:57.093Z,1011.62
2018-12-23T09:59:57.109Z,1011.67
2018-12-23T10:00:57.126Z,1011.62
2018-12-23T10:01:57.144Z,1011.63
2018-12-23T10:02:57.160Z,1011.62
2018-12-23T10:03:57.176Z,1011.6
2018-12-23T10:04:57.195Z,1011.65
2018-12-23T10:05:57.211Z,1011.58
2018-12-23T10:06:57.227Z,1011.63
2018-12-23T10:07:57.244Z,1011.6
2018-12-23T10:08:57.264Z,1011.6
2018-12-23T10:09:57.279Z,1011.59
2018-12-23T10:10:57.296Z,1011.58
2018-12-23T10:11:57.313Z,1011.65
2018-12-23T10:12:57.330Z,1011.51
2018-12-23T10:13:57.346Z,1011.56
2018-12-23T10:15:57.385Z,1011.52
2018-12-23T10:16:57.399Z,1011.49
2018-12-23T10:17:57.414Z,1011.44
2018-12-23T10:18:57.432Z,1011.45
2018-12-23T10:19:57.449Z,1011.39
2018-12-23T10:20:57.467Z,1011.39
2018-12-23T10:21:57.483Z,1011.4
2018-12-23T10:22:57.500Z,1011.37
2018-12-23T10:23:57.517Z,1011.39
2018-12-23T10:24:57.534Z,1011.23
2018-12-23T10:25:57.551Z,1011.31
2018-12-23T10:26:57.568Z,1011.33
2018-12-23T10:27:57.645Z,1011.28
2018-12-23T10:28:57.601Z,1011.29
2018-12-23T10:29:57.619Z,1011.36
2018-12-23T10:31:57.654Z,1011.27
2018-12-23T10:32:57.669Z,1011.27
2018-12-23T10:33:57.687Z,1011.29
2018-12-23T10:34:57.705Z,1011.29
2018-12-23T10:35:57.721Z,1011.25
2018-12-23T10:36:57.739Z,1011.22
2018-12-23T10:37:57.756Z,1011.19
2018-12-23T10:38:57.773Z,1011.23
2018-12-23T10:39:57.790Z,1011.21
2018-12-23T10:40:57.808Z,1011.15
2018-12-23T10:41:57.825Z,1011.19
2018-12-23T10:42:57.842Z,1011.1
2018-12-23T10:43:57.859Z,1011.07
2018-12-23T10:44:57.878Z,1011.11
2018-12-23T10:45:57.894Z,1011.03
2018-12-23T10:47:57.929Z,1011.09
2018-12-23T10:48:57.947Z,1011.05
2018-12-23T10:49:57.962Z,1011.03
2018-12-23T10:50:57.979Z,1011
2018-12-23T10:51:57.997Z,1011
2018-12-23T10:52:58.015Z,1011
2018-12-23T10:53:58.032Z,1010.99
2018-12-23T10:54:58.048Z,1011.02
2018-12-23T10:55:58.067Z,1011.01
2018-12-23T10:56:58.084Z,1011.01
2018-12-23T10:57:58.099Z,1011
2018-12-23T10:58:58.117Z,1011.02
2018-12-23T10:59:58.134Z,1011.02
2018-12-23T11:00:58.158Z,1010.95
2018-12-23T11:01:58.170Z,1010.95
2018-12-23T11:03:58.204Z,1010.94
2018-12-23T11:04:58.222Z,1010.92
2018-12-23T11:05:58.237Z,1010.91
2018-12-23T11:06:58.255Z,1010.88
2018-12-23T11:07:58.272Z,1010.89
2018-12-23T11:08:59.126Z,1010.88
2018-12-23T11:10:02.073Z,1010.86
2018-12-23T11:10:58.325Z,1010.93
2018-12-23T11:11:58.348Z,1010.88
2018-12-23T11:12:58.358Z,1010.84
2018-12-23T11:13:58.375Z,1010.82
2018-12-23T11:14:58.393Z,1010.83
2018-12-23T11:15:58.410Z,1010.8
2018-12-23T11:16:58.428Z,1010.75
2018-12-23T11:18:58.463Z,1010.75
2018-12-23T11:19:58.479Z,1010.77
2018-12-23T11:20:58.496Z,1010.74
2018-12-23T11:21:58.515Z,1010.72
2018-12-23T11:22:58.632Z,1010.65
2018-12-23T11:23:58.555Z,1010.72
2018-12-23T11:24:58.654Z,1010.68
2018-12-23T11:25:58.584Z,1010.65
2018-12-23T11:26:58.600Z,1010.63
2018-12-23T11:27:58.619Z,1010.7
2018-12-23T11:28:58.735Z,1010.64
2018-12-23T11:29:58.653Z,1010.6
2018-12-23T11:30:58.670Z,1010.62
2018-12-23T11:31:58.688Z,1010.66
2018-12-23T11:32:58.705Z,1010.52
2018-12-23T11:33:58.723Z,1010.54
2018-12-23T11:34:58.739Z,1010.54
2018-12-23T11:35:58.757Z,1010.57
2018-12-23T11:36:58.775Z,1010.55
2018-12-23T11:37:58.791Z,1010.51
2018-12-23T11:38:58.812Z,1010.47
2018-12-23T11:39:58.827Z,1010.46
2018-12-23T11:40:58.845Z,1010.53
2018-12-23T11:41:58.863Z,1010.5
2018-12-23T11:42:58.879Z,1010.45
2018-12-23T11:43:58.897Z,1010.45
2018-12-23T11:44:58.916Z,1010.5
2018-12-23T11:45:58.932Z,1010.43
2018-12-23T11:46:58.949Z,1010.45
2018-12-23T11:47:58.967Z,1010.37
2018-12-23T11:48:58.984Z,1010.36
2018-12-23T11:50:59.020Z,1010.33
2018-12-23T11:51:59.037Z,1010.34
2018-12-23T11:52:59.054Z,1010.37
2018-12-23T11:53:59.072Z,1010.36
2018-12-23T11:54:59.091Z,1010.33
2018-12-23T11:55:59.108Z,1010.35
2018-12-23T11:56:59.125Z,1010.35
2018-12-23T11:57:59.142Z,1010.33
2018-12-23T11:58:59.159Z,1010.38
2018-12-23T11:59:59.182Z,1010.3
2018-12-23T12:00:59.194Z,1010.3
2018-12-23T12:01:59.211Z,1010.27
2018-12-23T12:02:59.236Z,1010.28
2018-12-23T12:03:59.246Z,1010.24
2018-12-23T12:04:59.264Z,1010.27
2018-12-23T12:06:59.300Z,1010.33
2018-12-23T12:07:59.316Z,1010.3
2018-12-23T12:09:06.756Z,1010.29
2018-12-23T12:09:59.352Z,1010.23
2018-12-23T12:10:59.369Z,1010.29
2018-12-23T12:11:59.387Z,1010.29
2018-12-23T12:12:59.404Z,1010.2
2018-12-23T12:13:59.421Z,1010.23
2018-12-23T12:14:59.439Z,1010.28
2018-12-23T12:15:59.456Z,1010.27
2018-12-23T12:16:59.476Z,1010.29
2018-12-23T12:17:59.492Z,1010.3
2018-12-23T12:18:59.509Z,1010.26
2018-12-23T12:19:59.527Z,1010.31
2018-12-23T12:20:59.544Z,1010.25
2018-12-23T12:22:59.578Z,1010.22
2018-12-23T12:23:59.596Z,1010.14
2018-12-23T12:24:59.693Z,1010.09
2018-12-23T12:25:59.631Z,1010.04
2018-12-23T12:26:59.649Z,1010.06
2018-12-23T12:27:59.667Z,1010.07
2018-12-23T12:28:59.684Z,1009.99
2018-12-23T12:29:59.701Z,1009.99
2018-12-23T12:30:59.726Z,1010.01
2018-12-23T12:31:59.736Z,1010.02
2018-12-23T12:32:59.754Z,1009.98
2018-12-23T12:33:59.772Z,1009.98
2018-12-23T12:34:59.789Z,1010.02
2018-12-23T12:35:59.807Z,1009.96
2018-12-23T12:36:59.823Z,1009.98
2018-12-23T12:38:59.860Z,1009.95
2018-12-23T12:39:59.879Z,1009.9
2018-12-23T12:40:59.894Z,1009.95
2018-12-23T12:41:59.914Z,1009.96
2018-12-23T12:42:59.931Z,1009.87
2018-12-23T12:43:59.945Z,1009.91
2018-12-23T12:44:59.963Z,1009.92
2018-12-23T12:46:00.572Z,1009.89
2018-12-23T12:46:59.999Z,1009.92
2018-12-23T12:48:00.015Z,1009.95
2018-12-23T12:49:00.033Z,1009.97